sensor_id;sensor_type;location;lat;lon;timestamp;temperature;humidity
38239;DHT22;24035;48.900;9.188;2023-05-24T00:01:09;12.10;1.00
38239;DHT22;24035;48.900;9.188;2023-05-24T00:03:35;12.00;2.40
38239;DHT22;24035;48.900;9.188;2023-05-24T00:06:04;12.00;1.00
38239;DHT22;24035;48.900;9.188;2023-05-24T00:08:34;12.10;40.50
38239;DHT22;24035;48.900;9.188;2023-05-24T00:11:00;12.10;1.00
38239;DHT22;24035;48.900;9.188;2023-05-24T00:13:25;12.10;1.00
38239;DHT22;24035;48.900;9.188;2023-05-24T00:15:51;12.00;22.00
38239;DHT22;24035;48.900;9.188;2023-05-24T00:18:17;12.10;19.60
38239;DHT22;24035;48.900;9.188;2023-05-24T00:20:43;12.10;1.00
38239;DHT22;24035;48.900;9.188;2023-05-24T00:23:10;12.00;1.00
38239;DHT22;24035;48.900;9.188;2023-05-24T00:25:35;12.00;89.70
38239;DHT22;24035;48.900;9.188;2023-05-24T00:28:01;11.90;99.90
38239;DHT22;24035;48.900;9.188;2023-05-24T00:30:27;11.90;99.90
38239;DHT22;24035;48.900;9.188;2023-05-24T00:32:52;11.80;99.90
38239;DHT22;24035;48.900;9.188;2023-05-24T00:35:18;11.70;99.90
38239;DHT22;24035;48.900;9.188;2023-05-24T00:37:43;11.70;99.90
38239;DHT22;24035;48.900;9.188;2023-05-24T00:40:12;11.70;90.70
38239;DHT22;24035;48.900;9.188;2023-05-24T00:42:38;11.70;99.90
38239;DHT22;24035;48.900;9.188;2023-05-24T00:45:04;11.60;99.90
38239;DHT22;24035;48.900;9.188;2023-05-24T00:47:31;11.60;91.70
38239;DHT22;24035;48.900;9.188;2023-05-24T00:49:57;11.50;99.90
38239;DHT22;24035;48.900;9.188;2023-05-24T00:52:23;11.40;99.90
38239;DHT22;24035;48.900;9.188;2023-05-24T00:54:48;11.50;99.90
38239;DHT22;24035;48.900;9.188;2023-05-24T00:57:14;11.40;1.00
38239;DHT22;24035;48.900;9.188;2023-05-24T00:59:40;11.50;1.00
38239;DHT22;24035;48.900;9.188;2023-05-24T01:02:07;11.50;1.00
38239;DHT22;24035;48.900;9.188;2023-05-24T01:04:32;11.50;1.00
38239;DHT22;24035;48.900;9.188;2023-05-24T01:10:09;11.40;1.00
38239;DHT22;24035;48.900;9.188;2023-05-24T01:12:58;11.40;1.00
38239;DHT22;24035;48.900;9.188;2023-05-24T01:15:51;11.40;1.00
38239;DHT22;24035;48.900;9.188;2023-05-24T01:23:43;11.30;1.00
38239;DHT22;24035;48.900;9.188;2023-05-24T01:26:35;11.30;1.00
38239;DHT22;24035;48.900;9.188;2023-05-24T01:29:03;11.30;1.00
38239;DHT22;24035;48.900;9.188;2023-05-24T01:31:29;11.30;1.00
38239;DHT22;24035;48.900;9.188;2023-05-24T01:33:55;11.30;1.00
38239;DHT22;24035;48.900;9.188;2023-05-24T01:36:20;11.30;1.00
38239;DHT22;24035;48.900;9.188;2023-05-24T01:38:47;11.30;99.90
38239;DHT22;24035;48.900;9.188;2023-05-24T01:41:38;11.20;1.00
38239;DHT22;24035;48.900;9.188;2023-05-24T01:44:38;11.10;1.00
38239;DHT22;24035;48.900;9.188;2023-05-24T01:47:24;11.10;1.00
38239;DHT22;24035;48.900;9.188;2023-05-24T01:50:06;11.10;1.00
38239;DHT22;24035;48.900;9.188;2023-05-24T01:52:34;11.00;1.00
38239;DHT22;24035;48.900;9.188;2023-05-24T01:55:00;11.00;1.00
38239;DHT22;24035;48.900;9.188;2023-05-24T01:57:27;11.00;1.00
38239;DHT22;24035;48.900;9.188;2023-05-24T01:59:53;11.00;1.00
38239;DHT22;24035;48.900;9.188;2023-05-24T02:02:19;10.90;1.00
38239;DHT22;24035;48.900;9.188;2023-05-24T02:04:45;11.00;1.00
38239;DHT22;24035;48.900;9.188;2023-05-24T02:07:11;11.10;1.00
38239;DHT22;24035;48.900;9.188;2023-05-24T02:09:37;11.10;1.00
38239;DHT22;24035;48.900;9.188;2023-05-24T02:12:03;11.20;1.00
38239;DHT22;24035;48.900;9.188;2023-05-24T02:14:29;11.20;1.00
38239;DHT22;24035;48.900;9.188;2023-05-24T02:16:55;11.20;1.00
38239;DHT22;24035;48.900;9.188;2023-05-24T02:19:23;11.20;99.90
38239;DHT22;24035;48.900;9.188;2023-05-24T02:21:49;11.10;1.00
38239;DHT22;24035;48.900;9.188;2023-05-24T02:24:16;11.10;1.00
38239;DHT22;24035;48.900;9.188;2023-05-24T02:26:43;11.10;1.00
38239;DHT22;24035;48.900;9.188;2023-05-24T02:29:09;11.20;1.00
38239;DHT22;24035;48.900;9.188;2023-05-24T02:31:34;11.30;1.00
38239;DHT22;24035;48.900;9.188;2023-05-24T02:34:00;11.30;1.00
38239;DHT22;24035;48.900;9.188;2023-05-24T02:36:26;11.30;1.00
38239;DHT22;24035;48.900;9.188;2023-05-24T02:38:52;11.20;1.00
38239;DHT22;24035;48.900;9.188;2023-05-24T02:41:18;11.30;1.00
38239;DHT22;24035;48.900;9.188;2023-05-24T02:43:44;11.30;1.00
38239;DHT22;24035;48.900;9.188;2023-05-24T02:46:10;11.30;1.00
38239;DHT22;24035;48.900;9.188;2023-05-24T02:48:36;11.30;1.00
38239;DHT22;24035;48.900;9.188;2023-05-24T02:51:01;11.20;1.00
38239;DHT22;24035;48.900;9.188;2023-05-24T02:53:28;11.20;1.00
38239;DHT22;24035;48.900;9.188;2023-05-24T02:55:54;11.10;1.00
38239;DHT22;24035;48.900;9.188;2023-05-24T02:58:20;11.00;1.00
38239;DHT22;24035;48.900;9.188;2023-05-24T03:00:45;11.10;1.00
38239;DHT22;24035;48.900;9.188;2023-05-24T03:03:11;11.10;1.00
38239;DHT22;24035;48.900;9.188;2023-05-24T03:05:37;11.10;1.00
38239;DHT22;24035;48.900;9.188;2023-05-24T03:08:02;11.10;1.00
38239;DHT22;24035;48.900;9.188;2023-05-24T03:10:28;11.10;1.00
38239;DHT22;24035;48.900;9.188;2023-05-24T03:12:54;11.10;1.00
38239;DHT22;24035;48.900;9.188;2023-05-24T03:15:19;11.20;1.00
38239;DHT22;24035;48.900;9.188;2023-05-24T03:17:45;11.20;1.00
38239;DHT22;24035;48.900;9.188;2023-05-24T03:20:11;11.10;1.00
38239;DHT22;24035;48.900;9.188;2023-05-24T03:22:37;11.00;1.00
38239;DHT22;24035;48.900;9.188;2023-05-24T03:25:03;10.80;1.00
38239;DHT22;24035;48.900;9.188;2023-05-24T03:27:29;10.80;1.00
38239;DHT22;24035;48.900;9.188;2023-05-24T03:29:55;10.80;1.00
38239;DHT22;24035;48.900;9.188;2023-05-24T03:32:20;10.70;1.00
38239;DHT22;24035;48.900;9.188;2023-05-24T03:34:46;10.70;42.30
38239;DHT22;24035;48.900;9.188;2023-05-24T03:37:12;10.60;99.90
38239;DHT22;24035;48.900;9.188;2023-05-24T03:39:37;10.60;99.90
38239;DHT22;24035;48.900;9.188;2023-05-24T03:42:03;10.60;99.90
38239;DHT22;24035;48.900;9.188;2023-05-24T03:44:29;10.60;99.90
38239;DHT22;24035;48.900;9.188;2023-05-24T03:46:54;10.60;99.90
38239;DHT22;24035;48.900;9.188;2023-05-24T03:49:20;10.60;99.90
38239;DHT22;24035;48.900;9.188;2023-05-24T03:51:46;10.60;99.90
38239;DHT22;24035;48.900;9.188;2023-05-24T03:54:11;10.60;92.10
38239;DHT22;24035;48.900;9.188;2023-05-24T03:56:37;10.60;99.90
38239;DHT22;24035;48.900;9.188;2023-05-24T03:59:03;10.70;99.90
38239;DHT22;24035;48.900;9.188;2023-05-24T04:01:29;10.60;99.90
38239;DHT22;24035;48.900;9.188;2023-05-24T04:03:59;10.70;99.90
38239;DHT22;24035;48.900;9.188;2023-05-24T04:06:26;10.70;99.90
38239;DHT22;24035;48.900;9.188;2023-05-24T04:08:57;10.70;66.60
38239;DHT22;24035;48.900;9.188;2023-05-24T04:11:23;10.80;99.90
38239;DHT22;24035;48.900;9.188;2023-05-24T04:13:53;10.80;99.90
38239;DHT22;24035;48.900;9.188;2023-05-24T04:16:21;10.80;1.00
38239;DHT22;24035;48.900;9.188;2023-05-24T04:18:49;10.80;28.10
38239;DHT22;24035;48.900;9.188;2023-05-24T04:21:15;10.90;42.20
38239;DHT22;24035;48.900;9.188;2023-05-24T04:23:40;10.90;5.90
38239;DHT22;24035;48.900;9.188;2023-05-24T04:26:06;10.80;1.00
38239;DHT22;24035;48.900;9.188;2023-05-24T04:28:35;10.70;1.00
38239;DHT22;24035;48.900;9.188;2023-05-24T04:31:00;10.80;1.00
38239;DHT22;24035;48.900;9.188;2023-05-24T04:33:26;10.80;1.00
38239;DHT22;24035;48.900;9.188;2023-05-24T04:35:52;10.80;1.00
38239;DHT22;24035;48.900;9.188;2023-05-24T04:38:18;10.90;1.00
38239;DHT22;24035;48.900;9.188;2023-05-24T04:40:44;10.90;1.00
38239;DHT22;24035;48.900;9.188;2023-05-24T04:43:10;11.00;1.00
38239;DHT22;24035;48.900;9.188;2023-05-24T04:45:36;11.10;1.00
38239;DHT22;24035;48.900;9.188;2023-05-24T04:48:02;11.10;1.00
38239;DHT22;24035;48.900;9.188;2023-05-24T04:50:29;11.00;1.00
38239;DHT22;24035;48.900;9.188;2023-05-24T04:52:55;11.10;1.00
38239;DHT22;24035;48.900;9.188;2023-05-24T04:55:20;11.10;1.00
38239;DHT22;24035;48.900;9.188;2023-05-24T04:57:46;11.00;1.00
38239;DHT22;24035;48.900;9.188;2023-05-24T05:00:12;11.10;1.00
38239;DHT22;24035;48.900;9.188;2023-05-24T05:02:38;11.10;1.00
38239;DHT22;24035;48.900;9.188;2023-05-24T05:05:03;11.20;1.00
38239;DHT22;24035;48.900;9.188;2023-05-24T05:07:29;11.20;1.00
38239;DHT22;24035;48.900;9.188;2023-05-24T05:09:55;11.40;99.90
38239;DHT22;24035;48.900;9.188;2023-05-24T05:12:21;11.40;1.00
38239;DHT22;24035;48.900;9.188;2023-05-24T05:14:47;11.30;99.90
38239;DHT22;24035;48.900;9.188;2023-05-24T05:17:12;11.30;1.00
38239;DHT22;24035;48.900;9.188;2023-05-24T05:19:38;11.40;99.90
38239;DHT22;24035;48.900;9.188;2023-05-24T05:22:03;11.40;99.90
38239;DHT22;24035;48.900;9.188;2023-05-24T05:24:29;11.40;99.90
38239;DHT22;24035;48.900;9.188;2023-05-24T05:26:55;11.40;99.90
38239;DHT22;24035;48.900;9.188;2023-05-24T05:29:21;11.30;99.90
38239;DHT22;24035;48.900;9.188;2023-05-24T05:31:47;11.30;99.90
38239;DHT22;24035;48.900;9.188;2023-05-24T05:34:12;11.40;99.90
38239;DHT22;24035;48.900;9.188;2023-05-24T05:36:38;11.50;99.90
38239;DHT22;24035;48.900;9.188;2023-05-24T05:39:08;11.60;99.90
38239;DHT22;24035;48.900;9.188;2023-05-24T05:41:38;11.70;99.90
38239;DHT22;24035;48.900;9.188;2023-05-24T05:44:04;11.60;99.90
38239;DHT22;24035;48.900;9.188;2023-05-24T05:46:30;11.80;99.90
38239;DHT22;24035;48.900;9.188;2023-05-24T05:48:55;11.80;99.90
38239;DHT22;24035;48.900;9.188;2023-05-24T05:51:21;11.60;99.90
38239;DHT22;24035;48.900;9.188;2023-05-24T05:53:46;11.60;99.90
38239;DHT22;24035;48.900;9.188;2023-05-24T05:56:12;11.80;99.90
38239;DHT22;24035;48.900;9.188;2023-05-24T05:58:38;11.80;99.90
38239;DHT22;24035;48.900;9.188;2023-05-24T06:01:04;11.80;99.90
38239;DHT22;24035;48.900;9.188;2023-05-24T06:03:29;11.90;81.20
38239;DHT22;24035;48.900;9.188;2023-05-24T06:05:55;11.80;79.50
38239;DHT22;24035;48.900;9.188;2023-05-24T06:08:21;11.80;68.00
38239;DHT22;24035;48.900;9.188;2023-05-24T06:10:46;11.80;99.90
38239;DHT22;24035;48.900;9.188;2023-05-24T06:13:12;11.90;99.90
38239;DHT22;24035;48.900;9.188;2023-05-24T06:15:38;12.00;6.70
38239;DHT22;24035;48.900;9.188;2023-05-24T06:18:04;11.80;97.40
38239;DHT22;24035;48.900;9.188;2023-05-24T06:20:30;11.70;99.90
38239;DHT22;24035;48.900;9.188;2023-05-24T06:22:56;11.60;99.90
38239;DHT22;24035;48.900;9.188;2023-05-24T06:25:22;11.50;99.90
38239;DHT22;24035;48.900;9.188;2023-05-24T06:27:49;11.60;74.60
38239;DHT22;24035;48.900;9.188;2023-05-24T06:30:16;11.60;99.90
38239;DHT22;24035;48.900;9.188;2023-05-24T06:32:42;11.80;99.90
38239;DHT22;24035;48.900;9.188;2023-05-24T06:35:08;11.90;85.70
38239;DHT22;24035;48.900;9.188;2023-05-24T06:37:34;11.90;18.90
38239;DHT22;24035;48.900;9.188;2023-05-24T06:40:00;12.20;85.10
38239;DHT22;24035;48.900;9.188;2023-05-24T06:42:26;12.40;1.00
38239;DHT22;24035;48.900;9.188;2023-05-24T06:44:52;12.40;1.00
38239;DHT22;24035;48.900;9.188;2023-05-24T06:47:17;12.40;1.00
38239;DHT22;24035;48.900;9.188;2023-05-24T06:49:43;12.30;1.00
38239;DHT22;24035;48.900;9.188;2023-05-24T06:52:09;12.10;1.00
38239;DHT22;24035;48.900;9.188;2023-05-24T06:54:34;11.90;60.60
38239;DHT22;24035;48.900;9.188;2023-05-24T06:57:00;11.80;99.90
38239;DHT22;24035;48.900;9.188;2023-05-24T06:59:26;12.00;53.00
38239;DHT22;24035;48.900;9.188;2023-05-24T07:01:52;11.90;99.90
38239;DHT22;24035;48.900;9.188;2023-05-24T07:04:25;11.90;99.90
38239;DHT22;24035;48.900;9.188;2023-05-24T07:06:52;11.80;99.90
38239;DHT22;24035;48.900;9.188;2023-05-24T07:09:18;12.00;99.90
38239;DHT22;24035;48.900;9.188;2023-05-24T07:11:44;11.90;73.40
38239;DHT22;24035;48.900;9.188;2023-05-24T07:14:10;11.80;99.90
38239;DHT22;24035;48.900;9.188;2023-05-24T07:16:36;11.80;99.90
38239;DHT22;24035;48.900;9.188;2023-05-24T07:19:01;11.90;99.90
38239;DHT22;24035;48.900;9.188;2023-05-24T07:21:27;11.90;90.00
38239;DHT22;24035;48.900;9.188;2023-05-24T07:23:53;11.90;18.00
38239;DHT22;24035;48.900;9.188;2023-05-24T07:26:18;12.00;47.00
38239;DHT22;24035;48.900;9.188;2023-05-24T07:28:45;12.10;1.00
38239;DHT22;24035;48.900;9.188;2023-05-24T07:31:10;12.30;1.00
38239;DHT22;24035;48.900;9.188;2023-05-24T07:33:36;12.60;1.00
38239;DHT22;24035;48.900;9.188;2023-05-24T07:36:06;12.60;1.00
38239;DHT22;24035;48.900;9.188;2023-05-24T07:38:32;12.40;1.00
38239;DHT22;24035;48.900;9.188;2023-05-24T07:41:02;12.50;1.00
38239;DHT22;24035;48.900;9.188;2023-05-24T07:43:29;12.60;1.00
38239;DHT22;24035;48.900;9.188;2023-05-24T07:45:54;12.40;1.00
38239;DHT22;24035;48.900;9.188;2023-05-24T07:48:21;12.10;1.00
38239;DHT22;24035;48.900;9.188;2023-05-24T07:50:48;12.10;1.00
38239;DHT22;24035;48.900;9.188;2023-05-24T07:53:15;12.00;1.00
38239;DHT22;24035;48.900;9.188;2023-05-24T07:55:41;12.00;1.00
38239;DHT22;24035;48.900;9.188;2023-05-24T07:58:09;11.90;3.70
38239;DHT22;24035;48.900;9.188;2023-05-24T08:00:35;11.60;22.60
38239;DHT22;24035;48.900;9.188;2023-05-24T08:03:01;11.70;97.70
38239;DHT22;24035;48.900;9.188;2023-05-24T08:05:27;11.90;63.80
38239;DHT22;24035;48.900;9.188;2023-05-24T08:07:54;12.20;1.00
38239;DHT22;24035;48.900;9.188;2023-05-24T08:10:20;12.40;1.00
38239;DHT22;24035;48.900;9.188;2023-05-24T08:12:46;12.50;1.00
38239;DHT22;24035;48.900;9.188;2023-05-24T08:15:12;12.50;1.00
38239;DHT22;24035;48.900;9.188;2023-05-24T08:17:38;12.80;1.00
38239;DHT22;24035;48.900;9.188;2023-05-24T08:20:04;13.10;1.00
38239;DHT22;24035;48.900;9.188;2023-05-24T08:22:34;13.00;1.00
38239;DHT22;24035;48.900;9.188;2023-05-24T08:25:01;13.10;1.00
38239;DHT22;24035;48.900;9.188;2023-05-24T08:27:28;13.10;1.00
38239;DHT22;24035;48.900;9.188;2023-05-24T08:29:54;13.10;1.00
38239;DHT22;24035;48.900;9.188;2023-05-24T08:32:20;13.10;1.00
38239;DHT22;24035;48.900;9.188;2023-05-24T08:34:46;13.30;1.00
38239;DHT22;24035;48.900;9.188;2023-05-24T08:37:12;13.40;1.00
38239;DHT22;24035;48.900;9.188;2023-05-24T08:39:39;13.10;1.00
38239;DHT22;24035;48.900;9.188;2023-05-24T08:42:06;13.30;1.00
38239;DHT22;24035;48.900;9.188;2023-05-24T08:44:40;13.10;1.00
38239;DHT22;24035;48.900;9.188;2023-05-24T08:47:12;13.00;1.00
38239;DHT22;24035;48.900;9.188;2023-05-24T08:49:39;13.10;1.00
38239;DHT22;24035;48.900;9.188;2023-05-24T08:52:05;13.40;1.00
38239;DHT22;24035;48.900;9.188;2023-05-24T08:54:35;13.50;1.00
38239;DHT22;24035;48.900;9.188;2023-05-24T08:57:01;13.50;1.00
38239;DHT22;24035;48.900;9.188;2023-05-24T08:59:27;13.50;1.00
38239;DHT22;24035;48.900;9.188;2023-05-24T09:01:53;13.40;1.00
38239;DHT22;24035;48.900;9.188;2023-05-24T09:04:23;13.10;1.00
38239;DHT22;24035;48.900;9.188;2023-05-24T09:06:51;12.80;1.00
38239;DHT22;24035;48.900;9.188;2023-05-24T09:09:20;12.50;1.00
38239;DHT22;24035;48.900;9.188;2023-05-24T09:11:48;12.40;1.00
38239;DHT22;24035;48.900;9.188;2023-05-24T09:14:16;12.80;1.00
38239;DHT22;24035;48.900;9.188;2023-05-24T09:16:43;13.00;1.00
38239;DHT22;24035;48.900;9.188;2023-05-24T09:19:08;13.20;1.00
38239;DHT22;24035;48.900;9.188;2023-05-24T09:21:34;13.30;1.00
38239;DHT22;24035;48.900;9.188;2023-05-24T09:24:00;13.20;1.00
38239;DHT22;24035;48.900;9.188;2023-05-24T09:26:29;13.00;1.00
38239;DHT22;24035;48.900;9.188;2023-05-24T09:28:55;12.90;1.00
38239;DHT22;24035;48.900;9.188;2023-05-24T09:31:31;13.10;1.00
38239;DHT22;24035;48.900;9.188;2023-05-24T09:33:58;13.10;1.00
38239;DHT22;24035;48.900;9.188;2023-05-24T09:36:24;13.20;1.00
38239;DHT22;24035;48.900;9.188;2023-05-24T09:39:05;13.00;1.00
38239;DHT22;24035;48.900;9.188;2023-05-24T09:41:32;13.10;1.00
38239;DHT22;24035;48.900;9.188;2023-05-24T09:43:58;12.80;1.00
38239;DHT22;24035;48.900;9.188;2023-05-24T09:46:24;12.60;1.00
38239;DHT22;24035;48.900;9.188;2023-05-24T09:48:58;12.30;1.00
38239;DHT22;24035;48.900;9.188;2023-05-24T09:51:24;12.30;1.00
38239;DHT22;24035;48.900;9.188;2023-05-24T09:53:55;12.70;1.00
38239;DHT22;24035;48.900;9.188;2023-05-24T09:56:22;13.00;1.00
38239;DHT22;24035;48.900;9.188;2023-05-24T09:58:48;13.40;1.00
38239;DHT22;24035;48.900;9.188;2023-05-24T10:01:14;13.40;1.00
38239;DHT22;24035;48.900;9.188;2023-05-24T10:03:57;13.40;1.00
38239;DHT22;24035;48.900;9.188;2023-05-24T10:06:24;13.70;1.00
38239;DHT22;24035;48.900;9.188;2023-05-24T10:08:50;13.50;1.00
38239;DHT22;24035;48.900;9.188;2023-05-24T10:11:17;13.50;1.00
38239;DHT22;24035;48.900;9.188;2023-05-24T10:13:43;13.30;1.00
38239;DHT22;24035;48.900;9.188;2023-05-24T10:16:09;13.30;99.90
38239;DHT22;24035;48.900;9.188;2023-05-24T10:18:35;13.20;1.00
38239;DHT22;24035;48.900;9.188;2023-05-24T10:21:01;13.30;1.00
38239;DHT22;24035;48.900;9.188;2023-05-24T10:23:33;13.50;1.00
38239;DHT22;24035;48.900;9.188;2023-05-24T10:26:06;13.50;1.00
38239;DHT22;24035;48.900;9.188;2023-05-24T10:28:36;13.60;99.90
38239;DHT22;24035;48.900;9.188;2023-05-24T10:31:09;14.00;99.90
38239;DHT22;24035;48.900;9.188;2023-05-24T10:33:37;14.20;99.90
38239;DHT22;24035;48.900;9.188;2023-05-24T10:36:05;14.20;99.90
38239;DHT22;24035;48.900;9.188;2023-05-24T10:38:32;14.60;99.90
38239;DHT22;24035;48.900;9.188;2023-05-24T10:40:58;15.10;99.90
38239;DHT22;24035;48.900;9.188;2023-05-24T10:43:25;14.80;99.90
38239;DHT22;24035;48.900;9.188;2023-05-24T10:45:50;14.70;99.90
38239;DHT22;24035;48.900;9.188;2023-05-24T10:48:38;15.10;99.90
38239;DHT22;24035;48.900;9.188;2023-05-24T10:51:35;15.30;99.90
38239;DHT22;24035;48.900;9.188;2023-05-24T10:54:24;15.60;99.90
38239;DHT22;24035;48.900;9.188;2023-05-24T10:57:11;16.00;99.90
38239;DHT22;24035;48.900;9.188;2023-05-24T11:03:02;15.20;99.90
38239;DHT22;24035;48.900;9.188;2023-05-24T11:08:30;14.70;99.90
38239;DHT22;24035;48.900;9.188;2023-05-24T11:11:09;14.70;99.90
38239;DHT22;24035;48.900;9.188;2023-05-24T11:13:37;15.20;99.90
38239;DHT22;24035;48.900;9.188;2023-05-24T11:16:03;15.40;99.90
38239;DHT22;24035;48.900;9.188;2023-05-24T11:18:29;15.70;99.90
38239;DHT22;24035;48.900;9.188;2023-05-24T11:20:56;16.10;99.90
38239;DHT22;24035;48.900;9.188;2023-05-24T11:23:24;16.00;99.90
38239;DHT22;24035;48.900;9.188;2023-05-24T11:25:50;16.00;99.90
38239;DHT22;24035;48.900;9.188;2023-05-24T11:28:17;16.00;99.90
38239;DHT22;24035;48.900;9.188;2023-05-24T11:30:43;16.30;99.90
38239;DHT22;24035;48.900;9.188;2023-05-24T11:33:20;15.80;99.90
38239;DHT22;24035;48.900;9.188;2023-05-24T11:35:49;15.70;99.90
38239;DHT22;24035;48.900;9.188;2023-05-24T11:38:15;15.40;99.90
38239;DHT22;24035;48.900;9.188;2023-05-24T11:40:45;15.40;99.90
38239;DHT22;24035;48.900;9.188;2023-05-24T11:43:16;15.70;99.90
38239;DHT22;24035;48.900;9.188;2023-05-24T11:45:44;16.10;99.90
38239;DHT22;24035;48.900;9.188;2023-05-24T11:48:11;16.80;99.90
38239;DHT22;24035;48.900;9.188;2023-05-24T11:50:41;16.70;99.90
38239;DHT22;24035;48.900;9.188;2023-05-24T11:53:11;15.80;99.90
38239;DHT22;24035;48.900;9.188;2023-05-24T11:55:37;15.80;99.90
38239;DHT22;24035;48.900;9.188;2023-05-24T11:58:10;16.20;99.90
38239;DHT22;24035;48.900;9.188;2023-05-24T12:00:38;16.60;99.90
38239;DHT22;24035;48.900;9.188;2023-05-24T12:03:04;16.60;99.90
38239;DHT22;24035;48.900;9.188;2023-05-24T12:05:33;16.50;99.90
38239;DHT22;24035;48.900;9.188;2023-05-24T12:08:08;16.80;99.90
38239;DHT22;24035;48.900;9.188;2023-05-24T12:10:35;16.70;99.90
38239;DHT22;24035;48.900;9.188;2023-05-24T12:13:04;17.00;99.90
38239;DHT22;24035;48.900;9.188;2023-05-24T12:15:30;17.10;99.90
38239;DHT22;24035;48.900;9.188;2023-05-24T12:17:57;16.90;99.90
38239;DHT22;24035;48.900;9.188;2023-05-24T12:20:23;17.30;99.90
38239;DHT22;24035;48.900;9.188;2023-05-24T12:22:50;17.10;99.90
38239;DHT22;24035;48.900;9.188;2023-05-24T12:25:21;17.60;99.90
38239;DHT22;24035;48.900;9.188;2023-05-24T12:27:55;17.70;99.90
38239;DHT22;24035;48.900;9.188;2023-05-24T12:30:26;18.10;99.90
38239;DHT22;24035;48.900;9.188;2023-05-24T12:32:53;18.80;99.90
38239;DHT22;24035;48.900;9.188;2023-05-24T12:35:22;17.70;99.90
38239;DHT22;24035;48.900;9.188;2023-05-24T12:37:48;17.50;99.90
38239;DHT22;24035;48.900;9.188;2023-05-24T12:42:43;17.10;99.90
38239;DHT22;24035;48.900;9.188;2023-05-24T12:45:10;16.90;99.90
38239;DHT22;24035;48.900;9.188;2023-05-24T12:47:36;16.70;99.90
38239;DHT22;24035;48.900;9.188;2023-05-24T12:50:02;17.20;99.90
38239;DHT22;24035;48.900;9.188;2023-05-24T12:52:28;17.70;99.90
38239;DHT22;24035;48.900;9.188;2023-05-24T12:54:53;18.40;99.90
38239;DHT22;24035;48.900;9.188;2023-05-24T12:57:19;18.50;99.90
38239;DHT22;24035;48.900;9.188;2023-05-24T12:59:45;18.20;99.90
38239;DHT22;24035;48.900;9.188;2023-05-24T13:02:11;18.00;99.90
38239;DHT22;24035;48.900;9.188;2023-05-24T13:04:37;18.20;99.90
38239;DHT22;24035;48.900;9.188;2023-05-24T13:07:03;18.20;99.90
38239;DHT22;24035;48.900;9.188;2023-05-24T13:09:29;18.00;99.90
38239;DHT22;24035;48.900;9.188;2023-05-24T13:11:54;18.10;99.90
38239;DHT22;24035;48.900;9.188;2023-05-24T13:14:20;18.10;99.90
38239;DHT22;24035;48.900;9.188;2023-05-24T13:16:46;18.30;99.90
38239;DHT22;24035;48.900;9.188;2023-05-24T13:19:12;18.20;99.90
38239;DHT22;24035;48.900;9.188;2023-05-24T13:21:38;18.10;99.90
38239;DHT22;24035;48.900;9.188;2023-05-24T13:24:04;18.20;99.90
38239;DHT22;24035;48.900;9.188;2023-05-24T13:26:30;18.30;99.90
38239;DHT22;24035;48.900;9.188;2023-05-24T13:29:02;18.40;99.90
38239;DHT22;24035;48.900;9.188;2023-05-24T13:31:28;18.40;99.90
38239;DHT22;24035;48.900;9.188;2023-05-24T13:33:53;18.40;99.90
38239;DHT22;24035;48.900;9.188;2023-05-24T13:36:19;18.10;99.90
38239;DHT22;24035;48.900;9.188;2023-05-24T13:38:45;17.80;99.90
38239;DHT22;24035;48.900;9.188;2023-05-24T13:41:11;17.50;99.90
38239;DHT22;24035;48.900;9.188;2023-05-24T13:43:36;17.30;99.90
38239;DHT22;24035;48.900;9.188;2023-05-24T13:46:02;17.70;99.90
38239;DHT22;24035;48.900;9.188;2023-05-24T13:48:28;18.50;99.90
38239;DHT22;24035;48.900;9.188;2023-05-24T13:50:54;19.20;99.90
38239;DHT22;24035;48.900;9.188;2023-05-24T13:53:20;18.10;99.90
38239;DHT22;24035;48.900;9.188;2023-05-24T13:55:47;17.60;99.90
38239;DHT22;24035;48.900;9.188;2023-05-24T13:58:13;17.00;99.90
38239;DHT22;24035;48.900;9.188;2023-05-24T14:00:38;16.50;99.90
38239;DHT22;24035;48.900;9.188;2023-05-24T14:03:04;16.30;99.90
38239;DHT22;24035;48.900;9.188;2023-05-24T14:05:31;16.30;99.90
38239;DHT22;24035;48.900;9.188;2023-05-24T14:07:57;17.40;99.90
38239;DHT22;24035;48.900;9.188;2023-05-24T14:10:28;18.90;99.90
38239;DHT22;24035;48.900;9.188;2023-05-24T14:12:54;19.90;99.90
38239;DHT22;24035;48.900;9.188;2023-05-24T14:15:19;20.20;99.90
38239;DHT22;24035;48.900;9.188;2023-05-24T14:17:45;19.80;99.90
38239;DHT22;24035;48.900;9.188;2023-05-24T14:20:11;18.80;99.90
38239;DHT22;24035;48.900;9.188;2023-05-24T14:22:36;18.30;99.90
38239;DHT22;24035;48.900;9.188;2023-05-24T14:25:02;17.50;99.90
38239;DHT22;24035;48.900;9.188;2023-05-24T14:27:28;18.60;99.90
38239;DHT22;24035;48.900;9.188;2023-05-24T14:29:53;20.50;99.90
38239;DHT22;24035;48.900;9.188;2023-05-24T14:32:19;21.80;99.90
38239;DHT22;24035;48.900;9.188;2023-05-24T14:34:45;20.60;99.90
38239;DHT22;24035;48.900;9.188;2023-05-24T14:37:10;20.30;99.90
38239;DHT22;24035;48.900;9.188;2023-05-24T14:39:36;18.70;99.90
38239;DHT22;24035;48.900;9.188;2023-05-24T14:42:02;17.40;99.90
38239;DHT22;24035;48.900;9.188;2023-05-24T14:44:27;17.20;99.90
38239;DHT22;24035;48.900;9.188;2023-05-24T14:46:53;17.50;99.90
38239;DHT22;24035;48.900;9.188;2023-05-24T14:49:18;17.80;99.90
38239;DHT22;24035;48.900;9.188;2023-05-24T14:51:46;18.80;99.90
38239;DHT22;24035;48.900;9.188;2023-05-24T14:54:15;20.00;99.90
38239;DHT22;24035;48.900;9.188;2023-05-24T14:56:41;21.20;99.90
38239;DHT22;24035;48.900;9.188;2023-05-24T14:59:06;21.90;99.90
38239;DHT22;24035;48.900;9.188;2023-05-24T15:01:32;22.90;99.90
38239;DHT22;24035;48.900;9.188;2023-05-24T15:03:58;24.00;99.90
38239;DHT22;24035;48.900;9.188;2023-05-24T15:06:23;23.80;99.90
38239;DHT22;24035;48.900;9.188;2023-05-24T15:08:49;21.90;99.90
38239;DHT22;24035;48.900;9.188;2023-05-24T15:11:16;20.00;99.90
38239;DHT22;24035;48.900;9.188;2023-05-24T15:13:43;18.40;99.90
38239;DHT22;24035;48.900;9.188;2023-05-24T15:16:08;17.70;99.90
38239;DHT22;24035;48.900;9.188;2023-05-24T15:18:34;17.40;99.90
38239;DHT22;24035;48.900;9.188;2023-05-24T15:21:00;17.50;99.90
38239;DHT22;24035;48.900;9.188;2023-05-24T15:23:25;18.80;99.90
38239;DHT22;24035;48.900;9.188;2023-05-24T15:25:51;20.70;99.90
38239;DHT22;24035;48.900;9.188;2023-05-24T15:28:17;21.00;99.90
38239;DHT22;24035;48.900;9.188;2023-05-24T15:30:46;20.30;99.90
38239;DHT22;24035;48.900;9.188;2023-05-24T15:33:12;20.20;99.90
38239;DHT22;24035;48.900;9.188;2023-05-24T15:35:39;20.90;99.90
38239;DHT22;24035;48.900;9.188;2023-05-24T15:38:05;21.80;99.90
38239;DHT22;24035;48.900;9.188;2023-05-24T15:40:31;21.90;99.90
38239;DHT22;24035;48.900;9.188;2023-05-24T15:42:56;21.80;99.90
38239;DHT22;24035;48.900;9.188;2023-05-24T15:45:22;21.20;99.90
38239;DHT22;24035;48.900;9.188;2023-05-24T15:47:48;21.50;99.90
38239;DHT22;24035;48.900;9.188;2023-05-24T15:50:13;21.90;99.90
38239;DHT22;24035;48.900;9.188;2023-05-24T15:52:39;20.70;99.90
38239;DHT22;24035;48.900;9.188;2023-05-24T15:55:05;20.10;99.90